Time;durP1;ratioP1;P1;durP2;ratioP2;P2;SDS_P1;SDS_P2;PMS_P1;PMS_P2;Temp;Humidity;BMP_temperature;BMP_pressure;BME280_temperature;BME280_humidity;BME280_pressure;Samples;Min_cycle;Max_cycle;Signal;HPM_P1;HPM_P2
2023/08/23 00:01:48;;;;;;;6.70;6.10;;;23.10;1.00;;;;;;6338915;22;20369;-38
2023/08/23 00:04:13;;;;;;;7.10;6.40;;;23.10;90.00;;;;;;6340904;22;20242;-38
2023/08/23 00:06:39;;;;;;;6.13;5.63;;;23.10;99.90;;;;;;6340595;22;20155;-36
2023/08/23 00:09:05;;;;;;;6.73;6.23;;;23.00;99.90;;;;;;6336454;22;20306;-36
2023/08/23 00:11:31;;;;;;;6.57;5.97;;;23.00;99.90;;;;;;6337073;22;20163;-37
2023/08/23 00:13:57;;;;;;;6.63;5.93;;;23.00;99.90;;;;;;6337360;22;20680;-38
2023/08/23 00:16:22;;;;;;;6.53;5.93;;;23.00;99.90;;;;;;6337762;22;20460;-36
2023/08/23 00:18:49;;;;;;;6.93;6.33;;;23.00;99.90;;;;;;6337584;22;20235;-36
2023/08/23 00:21:15;;;;;;;7.97;7.23;;;23.00;1.00;;;;;;6338198;22;20300;-37
2023/08/23 00:23:41;;;;;;;7.27;6.67;;;22.90;1.00;;;;;;6338547;22;20490;-37
2023/08/23 00:26:06;;;;;;;7.20;6.60;;;22.90;1.00;;;;;;6338167;22;20227;-37
2023/08/23 00:28:32;;;;;;;7.00;6.30;;;22.90;1.00;;;;;;6336179;22;20150;-37
2023/08/23 00:30:58;;;;;;;7.63;6.37;;;22.90;1.00;;;;;;6338968;22;20151;-37
2023/08/23 00:33:23;;;;;;;7.00;6.40;;;22.90;1.00;;;;;;6338381;22;20455;-40
2023/08/23 00:35:49;;;;;;;6.93;6.33;;;22.90;1.00;;;;;;6338011;22;20151;-37
2023/08/23 00:38:15;;;;;;;8.30;7.60;;;22.80;1.00;;;;;;6338611;22;20138;-37
2023/08/23 00:40:40;;;;;;;7.63;6.83;;;22.80;1.00;;;;;;6339125;22;20357;-35
2023/08/23 00:43:09;;;;;;;7.90;7.10;;;22.80;1.00;;;;;;6338468;22;20466;-38
2023/08/23 00:45:35;;;;;;;7.10;6.50;;;22.80;2.20;;;;;;6337334;22;20159;-37
2023/08/23 00:48:03;;;;;;;6.90;6.20;;;22.80;74.80;;;;;;6337318;22;20453;-38
2023/08/23 00:50:32;;;;;;;11.10;7.00;;;22.70;42.90;;;;;;6339038;22;20404;-38
2023/08/23 00:52:58;;;;;;;8.60;6.90;;;22.70;94.00;;;;;;6337735;22;20405;-39
2023/08/23 00:55:24;;;;;;;7.53;6.90;;;22.70;33.60;;;;;;6336237;22;20437;-40
2023/08/23 00:57:51;;;;;;;7.67;6.57;;;22.70;16.00;;;;;;6337390;22;20453;-38
2023/08/23 01:00:17;;;;;;;8.83;6.53;;;22.70;99.90;;;;;;6338575;22;20144;-38
2023/08/23 01:02:42;;;;;;;8.50;7.10;;;22.70;99.90;;;;;;6337907;22;20685;-38
2023/08/23 01:05:08;;;;;;;7.40;6.70;;;22.60;99.90;;;;;;6338389;22;20132;-37
2023/08/23 01:07:53;;;;;;;7.50;6.90;;;22.60;99.90;;;;;;6338005;22;20147;-37
2023/08/23 01:10:48;;;;;;;7.23;6.63;;;22.60;99.90;;;;;;6337350;22;20660;-39
2023/08/23 01:13:14;;;;;;;7.60;7.00;;;22.50;99.90;;;;;;6337028;22;20460;-36
2023/08/23 01:15:39;;;;;;;6.70;6.10;;;22.50;99.90;;;;;;6339967;22;20410;-38
2023/08/23 01:18:05;;;;;;;7.77;7.17;;;22.50;99.90;;;;;;6339216;22;20170;-38
2023/08/23 01:20:31;;;;;;;7.17;6.57;;;22.50;99.90;;;;;;6336870;22;20138;-37
2023/08/23 01:23:16;;;;;;;8.47;7.63;;;22.50;1.00;;;;;;6339517;22;20194;-38
2023/08/23 01:25:49;;;;;;;7.03;6.33;;;22.50;1.00;;;;;;6339574;22;20373;-39
2023/08/23 01:28:15;;;;;;;7.40;6.67;;;22.50;1.00;;;;;;6342434;22;20422;-40
2023/08/23 01:30:41;;;;;;;9.33;6.60;;;22.50;1.00;;;;;;6340516;22;20411;-37
2023/08/23 01:33:23;;;;;;;7.33;6.63;;;22.50;1.00;;;;;;6340978;22;20527;-37
2023/08/23 01:36:06;;;;;;;7.87;6.90;;;22.40;1.00;;;;;;6340522;22;20381;-38
2023/08/23 01:38:32;;;;;;;7.20;6.60;;;22.40;1.00;;;;;;6338181;22;20978;-39
2023/08/23 01:40:58;;;;;;;7.07;6.40;;;22.40;1.00;;;;;;6337418;22;20357;-38
2023/08/23 01:43:24;;;;;;;7.60;6.90;;;22.40;1.00;;;;;;6336153;22;20779;-36
2023/08/23 01:45:50;;;;;;;6.70;6.07;;;22.40;1.00;;;;;;6339323;22;20518;-38
2023/08/23 01:48:17;;;;;;;7.53;6.83;;;22.30;1.00;;;;;;6341905;22;20147;-38
2023/08/23 01:50:44;;;;;;;7.53;6.87;;;22.30;99.90;;;;;;6343344;22;20496;-40
2023/08/23 01:53:10;;;;;;;7.13;6.53;;;22.30;1.00;;;;;;6342453;22;20416;-39
2023/08/23 01:55:36;;;;;;;8.23;7.60;;;22.40;1.00;;;;;;6344047;22;20780;-38
2023/08/23 01:58:01;;;;;;;7.47;6.87;;;22.40;1.00;;;;;;6345369;22;20170;-40
2023/08/23 02:00:27;;;;;;;7.23;6.63;;;22.40;1.00;;;;;;6342729;22;20170;-41
2023/08/23 02:02:53;;;;;;;8.40;7.60;;;22.30;1.00;;;;;;6341112;22;20154;-36
2023/08/23 02:05:18;;;;;;;7.93;7.23;;;22.30;1.00;;;;;;6342134;22;20380;-36
2023/08/23 02:07:44;;;;;;;7.73;7.13;;;22.30;99.90;;;;;;6342674;22;20146;-37
2023/08/23 02:10:09;;;;;;;7.20;6.70;;;22.30;99.90;;;;;;6343276;22;20158;-38
2023/08/23 02:12:35;;;;;;;7.70;6.93;;;22.30;99.90;;;;;;6342403;22;20213;-38
2023/08/23 02:15:01;;;;;;;7.73;7.03;;;22.20;1.00;;;;;;6343120;22;20143;-38
2023/08/23 02:17:26;;;;;;;7.10;6.40;;;22.20;1.00;;;;;;6342575;22;20195;-38
2023/08/23 02:19:52;;;;;;;6.97;6.40;;;22.20;1.00;;;;;;6343037;22;20159;-39
2023/08/23 02:22:17;;;;;;;7.27;6.63;;;22.20;1.00;;;;;;6342984;22;20147;-38
2023/08/23 02:24:43;;;;;;;7.70;6.90;;;22.10;1.00;;;;;;6343654;22;20174;-38
2023/08/23 02:27:08;;;;;;;8.47;7.67;;;22.10;1.00;;;;;;6343454;22;20162;-41
2023/08/23 02:29:34;;;;;;;8.10;7.37;;;22.10;1.00;;;;;;6342895;22;20155;-40
2023/08/23 02:32:00;;;;;;;7.87;7.17;;;22.00;1.00;;;;;;6340634;22;20558;-38
2023/08/23 02:34:25;;;;;;;7.43;6.40;;;22.00;1.00;;;;;;6340059;22;20143;-39
2023/08/23 02:36:51;;;;;;;7.63;6.83;;;21.90;1.00;;;;;;6339527;22;20158;-38
2023/08/23 02:39:17;;;;;;;8.40;7.37;;;22.00;18.80;;;;;;6339789;22;20144;-39
2023/08/23 02:41:42;;;;;;;7.73;7.10;;;22.00;1.00;;;;;;6339228;22;20205;-36
2023/08/23 02:44:08;;;;;;;7.07;6.47;;;22.10;1.00;;;;;;6338802;22;20479;-40
2023/08/23 02:46:34;;;;;;;7.10;6.50;;;22.10;1.00;;;;;;6339318;22;20147;-38
2023/08/23 02:48:59;;;;;;;8.10;7.40;;;22.20;1.00;;;;;;6338659;22;20242;-38
2023/08/23 02:51:25;;;;;;;7.10;6.50;;;22.20;1.00;;;;;;6338823;22;20488;-37
2023/08/23 02:53:51;;;;;;;8.77;7.20;;;22.20;1.00;;;;;;6340589;22;20157;-37
2023/08/23 02:56:17;;;;;;;7.10;6.40;;;22.20;99.90;;;;;;6340225;22;20128;-42
2023/08/23 02:58:42;;;;;;;7.67;7.07;;;22.20;1.00;;;;;;6338974;22;20415;-39
2023/08/23 03:01:08;;;;;;;7.93;7.13;;;22.10;1.00;;;;;;6340978;22;20143;-41
2023/08/23 03:03:34;;;;;;;7.70;7.00;;;22.10;1.00;;;;;;6339239;22;20219;-37
2023/08/23 03:05:59;;;;;;;6.50;6.00;;;22.10;1.00;;;;;;6338664;22;20420;-37
2023/08/23 03:08:26;;;;;;;7.17;6.57;;;22.10;1.00;;;;;;6339275;22;20171;-37
2023/08/23 03:10:52;;;;;;;8.43;7.50;;;22.10;99.90;;;;;;6338811;22;20399;-39
2023/08/23 03:13:17;;;;;;;6.90;6.40;;;22.20;1.00;;;;;;6334824;22;20420;-39
2023/08/23 03:15:43;;;;;;;7.67;7.07;;;22.20;99.90;;;;;;6338279;22;20413;-38
2023/08/23 03:18:09;;;;;;;7.93;7.17;;;22.20;99.90;;;;;;6339907;22;20415;-39
2023/08/23 03:20:35;;;;;;;7.43;6.73;;;22.20;99.90;;;;;;6340503;22;20159;-37
2023/08/23 03:23:00;;;;;;;8.03;7.33;;;22.20;99.90;;;;;;6341626;22;20759;-38
2023/08/23 03:25:26;;;;;;;7.57;6.07;;;22.20;99.90;;;;;;6340571;22;20147;-38
2023/08/23 03:27:52;;;;;;;6.97;6.27;;;22.20;99.90;;;;;;6339499;22;20445;-38
2023/08/23 03:30:21;;;;;;;7.73;7.03;;;22.20;99.90;;;;;;6339811;22;20181;-43
2023/08/23 03:32:47;;;;;;;7.57;6.87;;;22.20;99.90;;;;;;6340623;22;20773;-39
2023/08/23 03:35:13;;;;;;;7.23;6.63;;;22.20;99.90;;;;;;6340330;22;20449;-39
2023/08/23 03:37:39;;;;;;;8.23;7.37;;;22.10;99.90;;;;;;6340398;22;20437;-37
2023/08/23 03:40:05;;;;;;;8.10;7.40;;;22.10;99.90;;;;;;6339817;22;20804;-39
2023/08/23 03:42:30;;;;;;;7.30;6.70;;;22.10;99.90;;;;;;6340949;22;20238;-37
2023/08/23 03:44:56;;;;;;;8.47;7.70;;;22.10;99.90;;;;;;6338653;22;20715;-41
2023/08/23 03:47:22;;;;;;;7.53;6.87;;;22.10;99.90;;;;;;6338902;22;20505;-38
2023/08/23 03:49:48;;;;;;;9.40;7.50;;;22.10;99.90;;;;;;6338869;22;20136;-38
2023/08/23 03:52:14;;;;;;;8.93;8.03;;;22.10;99.90;;;;;;6338939;22;20171;-38
2023/08/23 03:54:40;;;;;;;7.03;6.33;;;22.00;90.90;;;;;;6338845;22;20484;-38
2023/08/23 03:57:05;;;;;;;8.20;7.50;;;22.00;99.90;;;;;;6340083;22;20143;-39
2023/08/23 03:59:31;;;;;;;7.70;6.90;;;22.10;2.20;;;;;;6340952;22;20155;-39
2023/08/23 04:01:56;;;;;;;8.60;7.83;;;22.00;19.10;;;;;;6340629;22;20218;-39
2023/08/23 04:04:22;;;;;;;7.80;7.00;;;22.00;22.70;;;;;;6340772;22;20487;-38
2023/08/23 04:06:48;;;;;;;7.33;6.63;;;22.00;1.00;;;;;;6337105;22;20163;-35
2023/08/23 04:09:13;;;;;;;9.00;8.27;;;22.00;25.70;;;;;;6336562;22;20158;-38
2023/08/23 04:11:39;;;;;;;7.87;7.17;;;22.00;26.70;;;;;;6337570;22;20151;-39
2023/08/23 04:14:06;;;;;;;7.40;6.73;;;21.90;99.90;;;;;;6338535;22;20158;-37
2023/08/23 04:16:32;;;;;;;8.13;7.53;;;21.90;99.90;;;;;;6338560;22;20192;-38
2023/08/23 04:18:57;;;;;;;8.03;7.27;;;21.80;99.90;;;;;;6339989;22;20381;-37
2023/08/23 04:21:24;;;;;;;7.87;7.27;;;21.70;99.90;;;;;;6339137;22;20475;-37
2023/08/23 04:23:50;;;;;;;8.00;7.20;;;21.50;99.90;;;;;;6334478;22;20203;-38
2023/08/23 04:26:16;;;;;;;8.63;8.00;;;21.50;1.00;;;;;;6336760;22;20381;-39
2023/08/23 04:28:42;;;;;;;8.00;7.30;;;21.50;1.00;;;;;;6337433;22;20379;-40
2023/08/23 04:31:07;;;;;;;9.73;8.40;;;21.40;1.00;;;;;;6338247;22;20203;-40
2023/08/23 04:33:35;;;;;;;9.50;8.60;;;21.40;1.00;;;;;;6338586;22;20179;-37
2023/08/23 04:36:02;;;;;;;9.00;8.10;;;21.20;1.00;;;;;;6338998;22;20147;-39
2023/08/23 04:38:28;;;;;;;8.63;7.93;;;21.00;1.00;;;;;;6339029;22;20634;-39
2023/08/23 04:41:19;;;;;;;9.87;8.97;;;21.00;99.90;;;;;;6339468;22;20381;-38
2023/08/23 04:43:45;;;;;;;9.20;8.40;;;21.00;99.90;;;;;;6334336;22;20155;-38
2023/08/23 04:46:11;;;;;;;8.73;7.93;;;21.10;99.90;;;;;;6338846;22;20614;-40
2023/08/23 04:48:36;;;;;;;9.20;8.33;;;21.10;96.10;;;;;;6338133;22;20464;-39
2023/08/23 04:51:08;;;;;;;9.93;8.90;;;21.10;38.80;;;;;;6339288;22;20490;-38
2023/08/23 04:53:33;;;;;;;9.10;8.40;;;21.20;1.00;;;;;;6338810;22;20179;-37
2023/08/23 04:55:59;;;;;;;9.60;8.70;;;21.10;1.00;;;;;;6339151;22;20752;-38
2023/08/23 04:58:29;;;;;;;9.40;8.57;;;21.00;50.70;;;;;;6339309;22;20143;-42
2023/08/23 05:00:58;;;;;;;8.57;7.87;;;20.90;99.90;;;;;;6337366;22;20451;-39
2023/08/23 05:03:25;;;;;;;9.20;8.37;;;21.00;99.90;;;;;;6338511;22;20458;-39
2023/08/23 05:05:51;;;;;;;8.53;7.73;;;21.00;99.90;;;;;;6334482;22;20415;-37
2023/08/23 05:08:17;;;;;;;9.33;8.43;;;21.00;99.90;;;;;;6333101;22;20481;-40
2023/08/23 05:10:42;;;;;;;7.97;7.27;;;21.10;99.90;;;;;;6335514;22;20362;-42
2023/08/23 05:13:08;;;;;;;9.07;8.27;;;21.10;99.90;;;;;;6332503;22;20577;-40
2023/08/23 05:15:34;;;;;;;10.20;8.93;;;21.20;95.80;;;;;;6333189;22;20147;-38
2023/08/23 05:18:00;;;;;;;9.73;8.27;;;21.30;53.10;;;;;;6335955;22;20143;-38
2023/08/23 05:20:25;;;;;;;8.40;7.70;;;21.30;8.60;;;;;;6335804;22;20186;-38
2023/08/23 05:22:51;;;;;;;9.40;8.63;;;21.40;1.00;;;;;;6336755;22;20195;-39
2023/08/23 05:25:16;;;;;;;9.30;8.53;;;21.50;1.00;;;;;;6336484;22;20151;-39
2023/08/23 05:27:42;;;;;;;9.67;8.67;;;21.60;1.00;;;;;;6337470;22;20234;-38
2023/08/23 05:30:08;;;;;;;8.10;7.40;;;21.60;1.00;;;;;;6335912;22;20219;-38
2023/08/23 05:32:34;;;;;;;9.40;8.40;;;21.60;1.00;;;;;;6336916;22;20420;-37
2023/08/23 05:35:00;;;;;;;9.30;8.50;;;21.70;1.00;;;;;;6335476;22;20388;-38
2023/08/23 05:37:25;;;;;;;10.60;9.30;;;21.80;1.00;;;;;;6336276;22;20147;-38
2023/08/23 05:39:51;;;;;;;10.73;9.10;;;21.80;99.90;;;;;;6338527;22;20246;-38
2023/08/23 05:42:17;;;;;;;10.03;9.10;;;21.90;99.90;;;;;;6337735;22;20146;-40
2023/08/23 05:44:42;;;;;;;9.93;9.07;;;21.90;99.90;;;;;;6336842;22;20550;-41
2023/08/23 05:47:08;;;;;;;10.20;9.30;;;21.90;99.90;;;;;;6336207;22;20462;-37
2023/08/23 05:49:33;;;;;;;9.73;8.77;;;22.00;99.90;;;;;;6335478;22;20318;-39
2023/08/23 05:51:59;;;;;;;8.83;8.13;;;22.00;93.90;;;;;;6336968;22;20185;-41
2023/08/23 05:54:25;;;;;;;10.93;8.63;;;22.10;54.80;;;;;;6336477;22;20158;-38
2023/08/23 05:56:50;;;;;;;9.83;9.03;;;22.10;1.00;;;;;;6336536;22;20152;-41
2023/08/23 05:59:16;;;;;;;9.80;8.90;;;22.20;1.00;;;;;;6335661;22;20430;-41
2023/08/23 06:01:41;;;;;;;9.60;8.80;;;22.20;1.00;;;;;;6336192;22;20184;-41
2023/08/23 06:04:07;;;;;;;10.03;9.23;;;22.40;1.00;;;;;;6336914;22;20151;-40
2023/08/23 06:06:33;;;;;;;10.20;9.20;;;22.50;99.90;;;;;;6338714;22;20473;-39
2023/08/23 06:09:00;;;;;;;9.97;9.07;;;22.50;25.30;;;;;;6337604;22;20640;-42
2023/08/23 06:11:25;;;;;;;10.10;9.20;;;22.60;1.00;;;;;;6338746;22;20691;-38
2023/08/23 06:13:51;;;;;;;9.90;8.63;;;22.70;99.90;;;;;;6338973;22;20669;-38
2023/08/23 06:16:17;;;;;;;9.63;8.73;;;22.70;99.90;;;;;;6341479;22;20143;-38
2023/08/23 06:18:42;;;;;;;8.33;7.73;;;22.80;99.90;;;;;;6341597;22;20182;-40
2023/08/23 06:21:08;;;;;;;9.60;8.80;;;23.00;35.10;;;;;;6339540;22;20205;-39
2023/08/23 06:23:34;;;;;;;9.83;8.93;;;23.10;1.00;;;;;;6338780;22;20241;-40
2023/08/23 06:26:02;;;;;;;10.00;9.10;;;23.20;99.90;;;;;;6337615;22;20158;-40
2023/08/23 06:28:28;;;;;;;10.77;9.77;;;23.40;1.00;;;;;;6339472;22;20452;-41
2023/08/23 06:30:55;;;;;;;9.63;8.83;;;23.50;99.90;;;;;;6339734;22;20416;-35
2023/08/23 06:33:21;;;;;;;8.77;8.07;;;23.60;99.90;;;;;;6340530;22;20482;-38
2023/08/23 06:35:47;;;;;;;9.77;8.97;;;23.70;1.00;;;;;;6338762;22;20427;-39
2023/08/23 06:38:15;;;;;;;9.00;8.20;;;23.70;99.90;;;;;;6338591;22;20445;-36
2023/08/23 06:40:42;;;;;;;9.73;8.30;;;23.80;99.90;;;;;;6339197;22;20127;-38
2023/08/23 06:43:08;;;;;;;9.23;8.50;;;23.90;63.20;;;;;;6337447;22;20621;-36
2023/08/23 06:45:33;;;;;;;9.73;9.03;;;24.00;1.00;;;;;;6338137;22;20400;-36
2023/08/23 06:47:59;;;;;;;11.13;9.00;;;24.10;1.00;;;;;;6338082;22;20393;-39
2023/08/23 06:50:25;;;;;;;9.63;8.63;;;24.20;1.00;;;;;;6337022;22;20223;-38
2023/08/23 06:52:50;;;;;;;12.80;9.90;;;24.30;1.00;;;;;;6337378;22;20573;-39
2023/08/23 06:55:16;;;;;;;8.90;8.10;;;24.30;1.00;;;;;;6336980;22;20154;-37
2023/08/23 06:57:42;;;;;;;9.50;8.60;;;24.40;1.00;;;;;;6337995;22;20147;-37
2023/08/23 07:00:08;;;;;;;11.20;8.37;;;24.50;1.00;;;;;;6338357;22;20211;-37
2023/08/23 07:02:34;;;;;;;11.60;8.03;;;24.60;99.90;;;;;;6338091;22;20151;-35
2023/08/23 07:04:59;;;;;;;9.67;8.77;;;24.80;99.90;;;;;;6337685;22;20400;-37
2023/08/23 07:07:25;;;;;;;10.83;8.83;;;25.00;99.90;;;;;;6339393;22;20147;-38
2023/08/23 07:09:51;;;;;;;8.97;8.17;;;25.10;1.00;;;;;;6338255;22;20158;-39
2023/08/23 07:12:17;;;;;;;10.90;8.93;;;25.00;6.40;;;;;;6338426;22;20167;-37
2023/08/23 07:14:42;;;;;;;9.50;8.47;;;25.20;1.00;;;;;;6337965;22;20205;-37
2023/08/23 07:17:08;;;;;;;10.13;8.13;;;25.40;1.00;;;;;;6338862;22;20128;-37
2023/08/23 07:19:34;;;;;;;8.50;7.70;;;25.50;1.00;;;;;;6338573;22;20196;-37
2023/08/23 07:22:01;;;;;;;10.70;8.43;;;25.70;1.00;;;;;;6340012;22;20384;-36
2023/08/23 07:24:27;;;;;;;10.53;9.50;;;25.70;1.00;;;;;;6338365;22;20425;-36
2023/08/23 07:26:55;;;;;;;9.20;8.40;;;25.60;1.00;;;;;;6336322;22;20400;-37
2023/08/23 07:29:20;;;;;;;10.50;9.70;;;25.60;1.00;;;;;;6337197;22;20151;-38
2023/08/23 07:31:46;;;;;;;10.00;9.07;;;25.40;1.00;;;;;;6338993;22;20361;-35
2023/08/23 07:34:12;;;;;;;9.40;8.40;;;25.30;1.00;;;;;;6339381;22;20143;-37
2023/08/23 07:36:37;;;;;;;9.50;8.50;;;25.40;1.00;;;;;;6338311;22;20147;-36
2023/08/23 07:39:03;;;;;;;8.47;7.67;;;25.60;1.00;;;;;;6337883;22;20143;-39
2023/08/23 07:41:29;;;;;;;8.47;7.70;;;25.80;1.00;;;;;;6336355;22;20265;-38
2023/08/23 07:43:54;;;;;;;9.67;8.10;;;26.20;99.90;;;;;;6335987;22;20514;-37
2023/08/23 07:46:20;;;;;;;9.57;8.77;;;26.50;99.90;;;;;;6337292;22;20385;-36
2023/08/23 07:48:46;;;;;;;9.00;8.27;;;26.70;99.90;;;;;;6336907;22;20194;-37
2023/08/23 07:51:11;;;;;;;10.40;9.40;;;27.00;99.90;;;;;;6336850;22;20174;-36
2023/08/23 07:53:37;;;;;;;9.43;8.60;;;26.90;99.90;;;;;;6336953;22;20179;-36
2023/08/23 07:56:03;;;;;;;8.33;7.53;;;27.20;99.90;;;;;;6337064;22;20202;-38
2023/08/23 07:58:29;;;;;;;9.80;8.57;;;27.40;99.90;;;;;;6338513;22;21003;-37
2023/08/23 08:00:54;;;;;;;9.10;8.30;;;27.50;99.90;;;;;;6337419;22;20176;-38
2023/08/23 08:03:20;;;;;;;8.07;7.37;;;27.70;99.90;;;;;;6337274;22;20147;-37
2023/08/23 08:05:46;;;;;;;9.43;8.47;;;27.90;99.90;;;;;;6337385;22;20183;-38
2023/08/23 08:08:12;;;;;;;10.10;9.03;;;28.20;99.90;;;;;;6336766;22;20135;-37
2023/08/23 08:10:38;;;;;;;8.70;7.90;;;28.40;90.90;;;;;;6337787;22;20365;-38
2023/08/23 08:13:04;;;;;;;8.70;8.00;;;28.50;99.90;;;;;;6337739;22;20178;-37
2023/08/23 08:15:31;;;;;;;8.63;7.90;;;28.70;99.90;;;;;;6335985;22;20568;-37
2023/08/23 08:17:57;;;;;;;9.63;7.80;;;29.00;99.90;;;;;;6337202;22;20446;-37
2023/08/23 08:20:25;;;;;;;8.70;7.90;;;29.10;84.20;;;;;;6337923;22;20350;-37
2023/08/23 08:22:51;;;;;;;8.50;7.80;;;29.30;54.20;;;;;;6338139;22;20195;-38
2023/08/23 08:25:17;;;;;;;9.57;8.77;;;29.00;69.10;;;;;;6338662;22;20427;-39
2023/08/23 08:27:43;;;;;;;10.00;9.10;;;28.90;96.20;;;;;;6337705;22;20428;-38
2023/08/23 08:30:09;;;;;;;8.73;7.87;;;29.00;99.90;;;;;;6337233;22;20563;-37
2023/08/23 08:32:34;;;;;;;9.10;7.90;;;29.10;99.90;;;;;;6336713;22;20269;-37
2023/08/23 08:35:00;;;;;;;8.93;8.23;;;29.30;99.90;;;;;;6336492;22;20660;-37
2023/08/23 08:37:26;;;;;;;8.70;8.00;;;29.70;99.90;;;;;;6339003;22;20220;-37
2023/08/23 08:39:51;;;;;;;9.17;8.47;;;30.10;95.30;;;;;;6338434;22;20162;-39
2023/08/23 08:42:17;;;;;;;8.57;7.87;;;30.20;73.60;;;;;;6336207;22;20451;-38
2023/08/23 08:44:46;;;;;;;8.40;7.70;;;29.60;99.90;;;;;;6335991;22;20216;-38
2023/08/23 08:47:12;;;;;;;9.00;8.20;;;29.60;99.90;;;;;;6337402;22;20396;-37
2023/08/23 08:49:38;;;;;;;8.37;7.67;;;29.50;99.90;;;;;;6337071;22;20380;-39
2023/08/23 08:52:05;;;;;;;8.10;7.33;;;29.60;99.90;;;;;;6335541;22;20523;-37
2023/08/23 08:54:32;;;;;;;10.27;7.60;;;29.70;99.90;;;;;;6337574;22;20148;-36
2023/08/23 08:56:59;;;;;;;9.80;8.90;;;30.10;99.90;;;;;;6336300;22;20416;-39
2023/08/23 08:59:25;;;;;;;9.17;8.27;;;30.60;99.90;;;;;;6336019;22;20430;-38
2023/08/23 09:01:54;;;;;;;7.97;7.27;;;31.20;99.90;;;;;;6337224;22;20683;-38
2023/08/23 09:04:20;;;;;;;7.70;7.10;;;31.80;99.30;;;;;;6337580;22;20147;-39
2023/08/23 09:06:46;;;;;;;8.80;7.17;;;32.00;34.40;;;;;;6335989;22;20391;-39
2023/08/23 09:09:12;;;;;;;7.90;7.20;;;32.20;20.30;;;;;;6337795;22;20232;-40
2023/08/23 09:11:38;;;;;;;7.67;7.07;;;32.60;24.70;;;;;;6338565;22;20422;-38
2023/08/23 09:14:25;;;;;;;8.57;7.73;;;33.00;1.00;;;;;;6339186;22;20328;-37
2023/08/23 09:16:50;;;;;;;8.03;7.23;;;33.20;1.00;;;;;;6339101;22;20131;-38
2023/08/23 09:19:16;;;;;;;10.27;7.10;;;33.20;1.00;;;;;;6338006;22;20373;-37
2023/08/23 09:21:47;;;;;;;8.43;7.60;;;33.00;1.00;;;;;;6336582;22;20185;-38
2023/08/23 09:24:13;;;;;;;10.00;7.70;;;33.30;1.00;;;;;;6337083;22;20266;-37
2023/08/23 09:26:39;;;;;;;8.33;7.63;;;32.90;1.00;;;;;;6335963;22;20385;-38
2023/08/23 09:29:05;;;;;;;9.20;8.47;;;32.20;1.00;;;;;;6337060;22;20335;-41
2023/08/23 09:31:31;;;;;;;7.90;7.20;;;32.20;1.00;;;;;;6335009;22;20526;-38
2023/08/23 09:33:58;;;;;;;8.70;7.90;;;32.30;1.00;;;;;;6336301;22;20819;-38
2023/08/23 09:36:28;;;;;;;8.13;7.10;;;32.10;1.00;;;;;;6336052;22;20147;-37
2023/08/23 09:39:00;;;;;;;7.67;7.00;;;32.00;1.00;;;;;;6337952;22;20442;-39
2023/08/23 09:41:26;;;;;;;8.47;7.70;;;32.10;16.60;;;;;;6338513;22;20331;-42
2023/08/23 09:43:56;;;;;;;9.40;8.00;;;32.30;11.20;;;;;;6339866;22;20368;-37
2023/08/23 09:46:25;;;;;;;7.73;7.10;;;32.50;1.00;;;;;;6338796;22;20391;-38
2023/08/23 09:48:55;;;;;;;10.80;7.60;;;32.70;1.00;;;;;;6340009;22;20395;-40
2023/08/23 09:51:24;;;;;;;7.57;6.87;;;33.00;1.00;;;;;;6341625;22;20381;-37
2023/08/23 09:53:56;;;;;;;8.67;6.53;;;33.30;1.00;;;;;;6340908;22;20452;-37
2023/08/23 09:56:22;;;;;;;7.00;6.50;;;33.60;1.00;;;;;;6337559;22;20379;-36
2023/08/23 09:58:48;;;;;;;8.27;7.10;;;34.00;1.00;;;;;;6338202;22;20359;-38
2023/08/23 10:01:18;;;;;;;7.03;6.47;;;34.30;1.00;;;;;;6338604;22;20383;-38
2023/08/23 10:03:43;;;;;;;7.57;6.87;;;34.30;1.00;;;;;;6337936;22;20452;-37
2023/08/23 10:06:09;;;;;;;8.30;6.30;;;34.10;1.00;;;;;;6339236;22;20591;-39
2023/08/23 10:08:39;;;;;;;7.50;7.00;;;34.00;1.00;;;;;;6337772;22;20600;-40
2023/08/23 10:11:05;;;;;;;8.40;7.70;;;33.80;1.00;;;;;;6336819;22;20377;-40
2023/08/23 10:13:32;;;;;;;8.97;8.07;;;33.40;1.00;;;;;;6337847;22;20388;-37
2023/08/23 10:15:58;;;;;;;8.13;7.43;;;33.10;1.00;;;;;;6338587;22;20158;-38
2023/08/23 10:18:24;;;;;;;10.33;7.10;;;32.80;1.00;;;;;;6337293;22;20377;-37
2023/08/23 10:20:51;;;;;;;7.63;6.73;;;32.10;1.00;;;;;;6337453;22;20639;-39
2023/08/23 10:23:18;;;;;;;8.10;6.93;;;31.90;1.00;;;;;;6338748;22;20690;-39
2023/08/23 10:25:46;;;;;;;9.30;7.07;;;31.80;1.00;;;;;;6337523;22;20333;-37
2023/08/23 10:28:16;;;;;;;7.93;7.33;;;31.50;1.00;;;;;;6336942;22;20412;-38
2023/08/23 10:30:52;;;;;;;8.00;7.27;;;31.30;1.00;;;;;;6336682;22;20389;-38
2023/08/23 10:33:19;;;;;;;7.20;6.60;;;30.60;1.00;;;;;;6335258;22;20471;-37
2023/08/23 10:35:46;;;;;;;7.70;6.97;;;29.90;1.00;;;;;;6336104;22;20360;-36
2023/08/23 10:38:12;;;;;;;8.70;7.30;;;29.60;58.30;;;;;;6337344;22;20682;-38
2023/08/23 10:40:41;;;;;;;9.17;7.40;;;29.70;61.00;;;;;;6337680;22;20654;-37
2023/08/23 10:43:12;;;;;;;7.50;6.90;;;29.90;99.90;;;;;;6338004;22;20408;-40
2023/08/23 10:45:48;;;;;;;7.97;7.27;;;30.10;87.50;;;;;;6338076;22;20356;-37
2023/08/23 10:48:14;;;;;;;8.03;7.30;;;30.10;57.40;;;;;;6338219;22;20442;-40
2023/08/23 10:50:40;;;;;;;7.90;7.17;;;30.10;77.30;;;;;;6335977;22;20385;-39
2023/08/23 10:53:06;;;;;;;7.93;7.33;;;30.20;57.50;;;;;;6337074;22;20376;-36
2023/08/23 10:55:31;;;;;;;7.63;6.93;;;30.60;49.90;;;;;;6335760;22;20151;-36
2023/08/23 10:57:57;;;;;;;12.63;7.10;;;31.20;15.90;;;;;;6335547;22;20220;-37
2023/08/23 11:00:23;;;;;;;7.80;7.07;;;32.00;1.00;;;;;;6336404;22;20139;-36
2023/08/23 11:02:50;;;;;;;7.90;7.23;;;32.70;1.00;;;;;;6336163;22;20167;-36
2023/08/23 11:05:16;;;;;;;8.40;7.70;;;33.60;1.00;;;;;;6337123;22;20127;-35
2023/08/23 11:07:41;;;;;;;8.60;7.10;;;34.60;1.00;;;;;;6337035;22;20457;-38
2023/08/23 11:10:08;;;;;;;8.70;8.00;;;35.60;1.00;;;;;;6336677;22;20391;-36
2023/08/23 11:12:35;;;;;;;8.43;7.73;;;36.50;1.00;;;;;;6338439;22;20257;-36
2023/08/23 11:15:01;;;;;;;7.87;7.27;;;37.00;1.00;;;;;;6338384;22;20458;-36
2023/08/23 11:17:27;;;;;;;7.90;7.20;;;37.40;1.00;;;;;;6337250;22;20336;-37
2023/08/23 11:19:53;;;;;;;7.67;6.97;;;37.20;1.00;;;;;;6336948;22;20215;-40
2023/08/23 11:22:19;;;;;;;7.67;6.93;;;37.30;1.00;;;;;;6335573;22;20442;-37
2023/08/23 11:24:46;;;;;;;7.43;6.57;;;37.50;1.00;;;;;;6336691;22;20851;-39
2023/08/23 11:27:12;;;;;;;8.10;7.40;;;37.70;1.00;;;;;;6334310;22;20302;-38
2023/08/23 11:29:39;;;;;;;7.83;7.23;;;37.30;1.00;;;;;;6337487;22;20393;-38
2023/08/23 11:32:05;;;;;;;8.43;7.63;;;37.50;1.00;;;;;;6336464;22;20539;-39
2023/08/23 11:34:31;;;;;;;7.13;6.63;;;37.60;1.00;;;;;;6336595;22;20468;-39
2023/08/23 11:36:57;;;;;;;8.17;7.47;;;37.70;1.00;;;;;;6337012;22;20397;-40
2023/08/23 11:39:23;;;;;;;8.20;7.60;;;37.10;1.00;;;;;;6337756;22;20143;-39
2023/08/23 11:41:49;;;;;;;7.80;7.30;;;36.80;1.00;;;;;;6336930;22;20265;-38
2023/08/23 11:44:15;;;;;;;7.20;6.70;;;36.90;1.00;;;;;;6338436;22;20290;-38
2023/08/23 11:46:41;;;;;;;7.97;7.20;;;36.80;1.00;;;;;;6337989;22;20358;-38
2023/08/23 11:49:08;;;;;;;6.97;6.37;;;36.90;1.00;;;;;;6335230;22;20147;-37
2023/08/23 11:51:44;;;;;;;7.50;7.00;;;36.60;1.00;;;;;;6338743;22;20490;-37
2023/08/23 11:54:10;;;;;;;8.07;7.27;;;36.10;1.00;;;;;;6339543;22;20424;-37
2023/08/23 11:56:39;;;;;;;6.97;6.37;;;36.00;1.00;;;;;;6339550;22;20344;-39
2023/08/23 11:59:05;;;;;;;8.00;7.30;;;35.90;1.00;;;;;;6338987;22;20433;-41
2023/08/23 12:01:30;;;;;;;8.10;7.33;;;35.10;1.00;;;;;;6338579;22;20381;-39
2023/08/23 12:03:56;;;;;;;7.33;6.83;;;34.30;1.00;;;;;;6335171;22;20151;-37
2023/08/23 12:06:22;;;;;;;7.67;7.10;;;34.80;1.00;;;;;;6337348;22;20214;-36
2023/08/23 12:08:48;;;;;;;8.40;7.60;;;35.60;1.00;;;;;;6336086;22;20155;-37
2023/08/23 12:11:13;;;;;;;10.03;6.60;;;36.50;1.00;;;;;;6334495;22;20738;-37
2023/08/23 12:13:41;;;;;;;7.23;6.73;;;37.10;1.00;;;;;;6335564;22;20167;-38
2023/08/23 12:16:07;;;;;;;7.53;6.83;;;37.40;1.00;;;;;;6336213;22;20542;-38
2023/08/23 12:18:33;;;;;;;7.17;6.57;;;37.60;1.00;;;;;;6335160;22;20389;-38
2023/08/23 12:20:59;;;;;;;7.23;6.63;;;37.80;1.00;;;;;;6335183;22;20393;-39
2023/08/23 12:23:25;;;;;;;6.67;6.17;;;37.90;1.00;;;;;;6335280;22;20856;-38
2023/08/23 12:25:50;;;;;;;6.50;6.00;;;38.30;1.00;;;;;;6336279;22;20143;-39
2023/08/23 12:28:16;;;;;;;7.10;6.50;;;38.90;1.00;;;;;;6336822;22;20166;-40
2023/08/23 12:30:42;;;;;;;7.53;6.93;;;39.30;1.00;;;;;;6339254;22;20451;-41
2023/08/23 12:33:08;;;;;;;7.87;7.17;;;38.60;1.00;;;;;;6338338;22;20420;-38
2023/08/23 12:35:34;;;;;;;7.20;6.50;;;38.20;1.00;;;;;;6338606;22;20151;-39
2023/08/23 12:37:59;;;;;;;7.07;6.50;;;38.50;1.00;;;;;;6337619;22;20128;-40
2023/08/23 12:40:25;;;;;;;7.83;6.33;;;38.50;1.00;;;;;;6338809;22;20680;-39
2023/08/23 12:42:51;;;;;;;6.90;6.40;;;38.60;1.00;;;;;;6337714;22;20169;-37
2023/08/23 12:45:17;;;;;;;7.27;6.77;;;39.40;1.00;;;;;;6337387;22;20785;-38
2023/08/23 12:47:43;;;;;;;6.70;6.20;;;40.00;1.00;;;;;;6338584;22;20887;-38